Time;durP1;ratioP1;P1;durP2;ratioP2;P2;SDS_P1;SDS_P2;PMS_P1;PMS_P2;Temp;Humidity;BMP_temperature;BMP_pressure;BME280_temperature;BME280_humidity;BME280_pressure;Samples;Min_cycle;Max_cycle;Signal;HPM_P1;HPM_P2
2022/06/13 00:01:13;;;;;;;4.55;3.30;;;;;;;;;;9505365;30;20087;-66
2022/06/13 00:06:07;;;;;;;11.13;4.47;;;;;;;;;;9509941;30;20492;-66
2022/06/13 00:11:01;;;;;;;3.70;2.80;;;;;;;;;;9505565;30;20052;-66
2022/06/13 00:15:56;;;;;;;6.15;3.30;;;;;;;;;;9505353;30;20135;-66
2022/06/13 00:20:50;;;;;;;3.08;2.78;;;;;;;;;;9505314;30;20131;-67
2022/06/13 00:25:44;;;;;;;6.20;2.60;;;;;;;;;;9516584;30;20127;-66
2022/06/13 00:30:37;;;;;;;3.70;3.10;;;;;;;;;;9522995;30;20066;-66
2022/06/13 00:35:32;;;;;;;5.32;2.70;;;;;;;;;;9504781;30;20420;-66
2022/06/13 00:40:25;;;;;;;3.83;3.05;;;;;;;;;;9496686;30;20072;-66
2022/06/13 00:45:22;;;;;;;5.53;2.95;;;;;;;;;;9494723;30;20059;-66
2022/06/13 00:50:35;;;;;;;7.50;3.65;;;;;;;;;;9509171;30;20056;-66
2022/06/13 00:55:35;;;;;;;2.95;2.35;;;;;;;;;;9505956;30;20476;-66
2022/06/13 01:00:29;;;;;;;4.68;2.58;;;;;;;;;;9511902;30;20052;-67
2022/06/13 01:05:27;;;;;;;2.78;2.58;;;;;;;;;;9495169;30;20476;-66
2022/06/13 01:15:36;;;;;;;2.80;2.33;;;;;;;;;;9510444;30;20082;-66
2022/06/13 01:20:50;;;;;;;2.75;2.40;;;;;;;;;;9509963;30;20135;-67
2022/06/13 01:25:58;;;;;;;2.53;2.33;;;;;;;;;;9513672;30;20122;-67
2022/06/13 01:31:14;;;;;;;3.58;2.55;;;;;;;;;;9509816;30;20083;-67
2022/06/13 01:36:30;;;;;;;8.27;3.03;;;;;;;;;;9521568;30;20056;-67
2022/06/13 01:41:36;;;;;;;6.07;3.50;;;;;;;;;;9510924;30;20068;-67
2022/06/13 01:46:38;;;;;;;5.30;3.45;;;;;;;;;;9509788;30;20071;-66
2022/06/13 01:51:35;;;;;;;6.38;3.17;;;;;;;;;;9490481;30;20060;-67
2022/06/13 01:56:56;;;;;;;3.38;3.08;;;;;;;;;;9508990;30;20059;-66
2022/06/13 02:01:54;;;;;;;3.20;2.75;;;;;;;;;;9508324;30;20071;-67
2022/06/13 02:06:56;;;;;;;5.35;3.00;;;;;;;;;;9515196;30;20401;-67
2022/06/13 02:11:52;;;;;;;5.70;2.80;;;;;;;;;;9508184;30;20408;-67
2022/06/13 02:16:58;;;;;;;3.60;2.50;;;;;;;;;;9508192;30;20117;-67
2022/06/13 02:22:29;;;;;;;3.70;2.58;;;;;;;;;;9507961;30;20072;-66
2022/06/13 02:27:27;;;;;;;2.45;2.08;;;;;;;;;;9504270;30;20083;-66
2022/06/13 02:32:29;;;;;;;4.73;2.60;;;;;;;;;;9505978;30;20063;-66
2022/06/13 02:37:31;;;;;;;4.13;2.70;;;;;;;;;;9503070;30;20384;-66
2022/06/13 02:42:54;;;;;;;3.92;2.10;;;;;;;;;;9531925;30;20501;-66
2022/06/13 02:48:06;;;;;;;4.35;2.42;;;;;;;;;;9507370;30;20123;-66
2022/06/13 02:53:12;;;;;;;2.70;2.50;;;;;;;;;;9485377;30;20074;-66
2022/06/13 02:58:15;;;;;;;4.43;2.40;;;;;;;;;;9504493;30;20101;-66
2022/06/13 03:03:12;;;;;;;5.18;2.33;;;;;;;;;;9523260;30;20056;-67
2022/06/13 03:08:32;;;;;;;4.57;2.03;;;;;;;;;;9524309;30;20079;-67
2022/06/13 03:13:46;;;;;;;4.07;2.17;;;;;;;;;;9506326;30;20060;-67
2022/06/13 03:18:47;;;;;;;3.47;3.10;;;;;;;;;;9506443;30;20079;-68
2022/06/13 03:23:43;;;;;;;5.57;3.30;;;;;;;;;;9490594;30;20062;-68
2022/06/13 03:29:01;;;;;;;8.13;3.40;;;;;;;;;;9506261;30;20070;-68
2022/06/13 03:33:56;;;;;;;4.30;2.78;;;;;;;;;;9509834;30;20092;-67
2022/06/13 03:38:55;;;;;;;3.50;2.67;;;;;;;;;;9509232;30;20090;-67
2022/06/13 03:43:53;;;;;;;6.40;2.67;;;;;;;;;;9501898;30;20063;-67
2022/06/13 03:49:35;;;;;;;5.40;2.90;;;;;;;;;;9502079;30;20526;-67
2022/06/13 03:54:37;;;;;;;4.50;2.53;;;;;;;;;;9512835;30;20072;-67
2022/06/13 03:59:39;;;;;;;4.25;2.17;;;;;;;;;;9506870;30;20060;-68
2022/06/13 04:04:38;;;;;;;4.35;2.53;;;;;;;;;;9513338;30;20088;-67
2022/06/13 04:09:39;;;;;;;6.25;2.58;;;;;;;;;;9496918;30;20094;-68
2022/06/13 04:15:00;;;;;;;2.50;2.17;;;;;;;;;;9505044;30;20062;-66
2022/06/13 04:20:12;;;;;;;4.72;2.15;;;;;;;;;;9505588;30;20408;-67
2022/06/13 04:25:33;;;;;;;3.13;2.47;;;;;;;;;;9510448;30;20521;-67
2022/06/13 04:30:29;;;;;;;3.03;2.72;;;;;;;;;;9509361;30;20052;-66
2022/06/13 04:35:23;;;;;;;4.78;3.05;;;;;;;;;;9503873;30;20051;-66
2022/06/13 04:40:20;;;;;;;5.45;3.45;;;;;;;;;;9515806;30;20086;-67
2022/06/13 04:45:24;;;;;;;3.63;3.33;;;;;;;;;;9506161;30;20060;-67
2022/06/13 04:50:24;;;;;;;4.55;3.25;;;;;;;;;;9498396;30;20559;-67
2022/06/13 04:55:30;;;;;;;4.22;2.88;;;;;;;;;;9498501;30;20071;-67
2022/06/13 05:00:24;;;;;;;7.13;3.92;;;;;;;;;;9515241;30;20485;-67
2022/06/13 05:05:43;;;;;;;4.90;4.47;;;;;;;;;;9510053;30;20098;-67
2022/06/13 05:10:40;;;;;;;5.75;5.25;;;;;;;;;;9513678;30;20064;-67
2022/06/13 05:15:33;;;;;;;11.07;5.88;;;;;;;;;;9525604;30;20052;-68
2022/06/13 05:20:32;;;;;;;6.35;5.85;;;;;;;;;;9515124;30;20064;-67
2022/06/13 05:25:31;;;;;;;6.80;5.57;;;;;;;;;;9510941;30;20475;-68
2022/06/13 05:30:26;;;;;;;6.75;4.82;;;;;;;;;;9498642;30;20063;-68
2022/06/13 05:35:25;;;;;;;5.38;4.30;;;;;;;;;;9509699;30;20046;-67
2022/06/13 05:40:20;;;;;;;3.97;3.50;;;;;;;;;;9491754;30;20106;-68
2022/06/13 05:45:16;;;;;;;6.40;3.55;;;;;;;;;;9508586;30;20528;-68
2022/06/13 05:50:17;;;;;;;5.68;3.38;;;;;;;;;;9508811;30;20080;-68
2022/06/13 05:55:11;;;;;;;3.97;3.45;;;;;;;;;;9508272;30;20140;-68
2022/06/13 06:00:27;;;;;;;4.50;4.07;;;;;;;;;;9509738;30;20060;-68
2022/06/13 06:05:22;;;;;;;5.53;3.80;;;;;;;;;;9510985;30;20052;-67
2022/06/13 06:10:19;;;;;;;3.90;3.33;;;;;;;;;;9509110;30;20071;-68
2022/06/13 06:15:13;;;;;;;7.43;3.25;;;;;;;;;;9504468;30;20123;-68
2022/06/13 06:20:08;;;;;;;6.97;4.47;;;;;;;;;;9521293;30;20428;-68
2022/06/13 06:25:03;;;;;;;7.70;2.47;;;;;;;;;;9507669;30;20052;-68
2022/06/13 06:29:57;;;;;;;8.35;2.35;;;;;;;;;;9508184;30;20056;-68
2022/06/13 06:34:51;;;;;;;9.43;2.55;;;;;;;;;;9507640;30;20068;-68
2022/06/13 06:39:45;;;;;;;6.93;2.00;;;;;;;;;;9512016;30;20066;-67
2022/06/13 06:44:38;;;;;;;8.95;2.70;;;;;;;;;;9519176;30;20052;-67
2022/06/13 06:49:51;;;;;;;24.17;5.07;;;;;;;;;;9514984;30;20071;-67
2022/06/13 06:59:58;;;;;;;3.05;1.80;;;;;;;;;;9506629;30;20482;-67
2022/06/13 07:04:57;;;;;;;4.63;2.00;;;;;;;;;;9506391;30;20471;-67
2022/06/13 07:09:51;;;;;;;6.38;2.20;;;;;;;;;;9506208;30;20067;-67
2022/06/13 07:14:45;;;;;;;5.03;2.13;;;;;;;;;;9506441;30;20055;-67
2022/06/13 07:19:40;;;;;;;12.13;2.42;;;;;;;;;;9508071;30;20096;-67
2022/06/13 07:24:34;;;;;;;8.60;2.63;;;;;;;;;;9491330;30;20059;-67
2022/06/13 07:29:29;;;;;;;11.95;3.55;;;;;;;;;;9506530;30;20117;-67
2022/06/13 07:34:24;;;;;;;5.85;3.88;;;;;;;;;;9518142;30;20546;-67
2022/06/13 07:39:18;;;;;;;8.95;3.78;;;;;;;;;;9517558;30;20064;-67
2022/06/13 07:44:31;;;;;;;9.27;4.75;;;;;;;;;;9517534;30;20059;-68
2022/06/13 07:49:26;;;;;;;8.57;4.35;;;;;;;;;;9505371;30;20056;-67
2022/06/13 07:54:21;;;;;;;11.38;4.78;;;;;;;;;;9505513;30;20052;-67
2022/06/13 07:59:17;;;;;;;10.90;3.83;;;;;;;;;;9522112;30;20441;-67
2022/06/13 08:04:10;;;;;;;4.75;3.58;;;;;;;;;;9485261;30;20131;-68
2022/06/13 08:09:05;;;;;;;3.97;3.08;;;;;;;;;;9512660;30;20060;-68
2022/06/13 08:13:59;;;;;;;6.45;3.03;;;;;;;;;;9518264;30;20052;-68
2022/06/13 08:18:53;;;;;;;7.15;3.67;;;;;;;;;;9506102;30;20056;-68
2022/06/13 08:23:47;;;;;;;7.93;3.20;;;;;;;;;;9508642;30;20425;-68
2022/06/13 08:28:41;;;;;;;6.38;3.35;;;;;;;;;;9505039;30;20064;-67
2022/06/13 08:33:35;;;;;;;7.68;3.53;;;;;;;;;;9504977;30;20060;-68
2022/06/13 08:38:28;;;;;;;9.18;3.20;;;;;;;;;;9503982;30;20064;-68
2022/06/13 08:43:33;;;;;;;6.47;4.35;;;;;;;;;;9502366;30;20424;-68
2022/06/13 08:48:39;;;;;;;8.73;3.20;;;;;;;;;;9502230;30;20062;-68
2022/06/13 08:53:56;;;;;;;4.88;3.50;;;;;;;;;;9502133;30;20060;-68
2022/06/13 08:59:25;;;;;;;4.75;2.72;;;;;;;;;;9501128;30;20432;-68
2022/06/13 09:05:02;;;;;;;8.00;2.75;;;;;;;;;;9415962;30;20083;-68
2022/06/13 09:10:07;;;;;;;7.05;2.30;;;;;;;;;;9505191;30;20173;-68
2022/06/13 09:15:05;;;;;;;5.28;2.30;;;;;;;;;;9493163;30;20063;-68
2022/06/13 09:20:08;;;;;;;6.40;2.72;;;;;;;;;;9508236;30;20051;-68
2022/06/13 09:25:20;;;;;;;7.70;2.95;;;;;;;;;;9508593;30;20577;-67
2022/06/13 09:30:27;;;;;;;8.27;2.40;;;;;;;;;;9506469;30;20056;-68
2022/06/13 09:35:26;;;;;;;4.50;2.20;;;;;;;;;;9490314;30;20048;-68
2022/06/13 09:40:24;;;;;;;3.95;1.95;;;;;;;;;;9425996;30;2079705;-67
2022/06/13 09:45:46;;;;;;;10.57;3.15;;;;;;;;;;9492562;30;20114;-68
2022/06/13 09:50:48;;;;;;;3.92;1.75;;;;;;;;;;9508056;30;20052;-68
2022/06/13 09:55:53;;;;;;;4.43;2.55;;;;;;;;;;9511082;30;20052;-68
2022/06/13 10:01:11;;;;;;;7.38;1.80;;;;;;;;;;9507723;30;20059;-73
2022/06/13 10:06:26;;;;;;;6.22;2.58;;;;;;;;;;9509077;30;20056;-72
2022/06/13 10:11:39;;;;;;;4.13;1.55;;;;;;;;;;9512030;30;20140;-72
2022/06/13 10:16:56;;;;;;;4.47;1.30;;;;;;;;;;9507215;30;20099;-73
2022/06/13 10:22:14;;;;;;;3.95;1.20;;;;;;;;;;9504976;30;20056;-73
2022/06/13 10:27:27;;;;;;;1.50;1.13;;;;;;;;;;9488222;30;20066;-73
2022/06/13 10:33:07;;;;;;;5.53;0.98;;;;;;;;;;9494145;30;20501;-72
2022/06/13 10:38:23;;;;;;;6.15;0.70;;;;;;;;;;9501498;30;20060;-72
2022/06/13 10:43:32;;;;;;;0.70;0.70;;;;;;;;;;9493076;30;20056;-72
2022/06/13 10:48:35;;;;;;;3.42;1.15;;;;;;;;;;9508808;30;20068;-73
2022/06/13 10:53:44;;;;;;;2.08;1.20;;;;;;;;;;9492327;30;20412;-72
2022/06/13 10:58:51;;;;;;;1.13;0.90;;;;;;;;;;9509247;30;20126;-72
2022/06/13 11:03:59;;;;;;;1.77;1.10;;;;;;;;;;9508730;30;20748;-72
2022/06/13 11:09:02;;;;;;;3.97;1.00;;;;;;;;;;9507728;30;20068;-72
2022/06/13 11:13:56;;;;;;;5.70;1.27;;;;;;;;;;9504255;30;20064;-71
2022/06/13 11:24:18;;;;;;;8.40;1.60;;;;;;;;;;9439766;30;20091;-72
2022/06/13 11:29:19;;;;;;;3.88;1.00;;;;;;;;;;9491404;30;20056;-73
2022/06/13 11:34:24;;;;;;;5.38;0.93;;;;;;;;;;9504457;30;20048;-72
2022/06/13 11:39:34;;;;;;;4.17;1.10;;;;;;;;;;9504395;30;20090;-73
2022/06/13 11:44:28;;;;;;;3.05;0.73;;;;;;;;;;9505206;30;20416;-73
2022/06/13 11:49:36;;;;;;;2.50;1.50;;;;;;;;;;9504978;30;20059;-74
2022/06/13 11:54:47;;;;;;;3.17;1.00;;;;;;;;;;9504939;30;20080;-73
2022/06/13 12:00:02;;;;;;;1.67;0.80;;;;;;;;;;9504560;30;20109;-72
2022/06/13 12:04:57;;;;;;;3.10;0.60;;;;;;;;;;9509803;30;20059;-72
2022/06/13 12:09:53;;;;;;;3.83;1.05;;;;;;;;;;9507937;30;20113;-72
2022/06/13 12:14:47;;;;;;;5.70;0.68;;;;;;;;;;9504688;30;20052;-72
2022/06/13 12:20:27;;;;;;;1.57;0.67;;;;;;;;;;9504722;30;20060;-72
2022/06/13 12:25:32;;;;;;;1.98;1.02;;;;;;;;;;9504058;30;20306;-72
2022/06/13 12:30:35;;;;;;;4.25;0.73;;;;;;;;;;9505156;30;20056;-73
2022/06/13 12:35:34;;;;;;;2.95;0.68;;;;;;;;;;9505435;30;20123;-73
2022/06/13 12:40:42;;;;;;;3.70;1.08;;;;;;;;;;9505720;30;20483;-74
2022/06/13 12:45:56;;;;;;;5.30;1.15;;;;;;;;;;9513053;30;20509;-74
2022/06/13 12:51:15;;;;;;;3.05;0.90;;;;;;;;;;9511960;30;20060;-74
2022/06/13 12:56:41;;;;;;;5.03;0.73;;;;;;;;;;9512326;30;20056;-74
2022/06/13 13:01:54;;;;;;;;;;;;;;;;;;9503209;30;20066;-74
2022/06/13 13:06:53;;;;;;;2.88;1.35;;;;;;;;;;9497675;30;19930;-73
2022/06/13 13:12:22;;;;;;;3.95;0.95;;;;;;;;;;9515807;30;20466;-74
2022/06/13 13:17:24;;;;;;;5.75;1.00;;;;;;;;;;9442986;30;20118;-75
2022/06/13 13:22:47;;;;;;;3.30;1.15;;;;;;;;;;9515090;30;20083;-75
2022/06/13 13:28:35;;;;;;;3.08;1.38;;;;;;;;;;9475339;30;20524;-75
2022/06/13 13:34:20;;;;;;;3.10;1.00;;;;;;;;;;9518126;30;20090;-75
2022/06/13 13:39:42;;;;;;;6.53;1.30;;;;;;;;;;9507920;30;20491;-75
2022/06/13 13:44:58;;;;;;;3.55;1.13;;;;;;;;;;9509422;30;20055;-74
2022/06/13 13:49:59;;;;;;;1.17;0.70;;;;;;;;;;9508676;30;20068;-75
2022/06/13 13:55:06;;;;;;;4.00;1.08;;;;;;;;;;9505502;30;20512;-75
2022/06/13 14:00:07;;;;;;;6.55;1.00;;;;;;;;;;9504841;30;20155;-74
2022/06/13 14:05:55;;;;;;;8.40;1.27;;;;;;;;;;9493467;30;20147;-75
2022/06/13 14:10:53;;;;;;;10.23;2.00;;;;;;;;;;9463256;30;20083;-75
2022/06/13 14:15:50;;;;;;;7.15;1.33;;;;;;;;;;9507492;30;20094;-75
2022/06/13 14:21:32;;;;;;;1.40;1.08;;;;;;;;;;9508807;30;20048;-75
2022/06/13 14:26:32;;;;;;;7.22;1.85;;;;;;;;;;9499541;30;20127;-75
2022/06/13 14:31:45;;;;;;;5.40;1.33;;;;;;;;;;9503156;30;20062;-75
2022/06/13 14:36:50;;;;;;;4.78;1.40;;;;;;;;;;9507777;30;20604;-75
2022/06/13 14:42:06;;;;;;;3.67;1.10;;;;;;;;;;9507546;30;20143;-75
2022/06/13 14:47:27;;;;;;;2.47;1.30;;;;;;;;;;9491172;30;20072;-75
2022/06/13 14:52:44;;;;;;;2.85;1.63;;;;;;;;;;9540221;30;20577;-75
2022/06/13 14:57:37;;;;;;;3.53;1.23;;;;;;;;;;9504385;30;20052;-75
2022/06/13 15:02:34;;;;;;;7.95;2.10;;;;;;;;;;9509567;30;20087;-75
2022/06/13 15:07:47;;;;;;;4.18;1.08;;;;;;;;;;9506253;30;20651;-75
2022/06/13 15:13:01;;;;;;;2.50;0.95;;;;;;;;;;9505677;30;20071;-75
2022/06/13 15:18:14;;;;;;;9.20;1.50;;;;;;;;;;9511227;30;20519;-74
2022/06/13 15:23:18;;;;;;;3.13;1.10;;;;;;;;;;9505978;30;20094;-74
2022/06/13 15:28:17;;;;;;;7.15;1.90;;;;;;;;;;9503263;30;20063;-74
2022/06/13 15:33:34;;;;;;;8.32;1.27;;;;;;;;;;9487937;30;20056;-75
2022/06/13 15:39:06;;;;;;;5.20;2.53;;;;;;;;;;9505906;30;20082;-75
2022/06/13 15:44:17;;;;;;;5.40;2.05;;;;;;;;;;9506170;30;20063;-75
2022/06/13 15:49:14;;;;;;;2.70;1.33;;;;;;;;;;9522453;30;20066;-73
2022/06/13 15:54:38;;;;;;;5.80;1.90;;;;;;;;;;9516361;30;20056;-75
2022/06/13 15:59:50;;;;;;;3.22;1.48;;;;;;;;;;9506580;30;20064;-76
2022/06/13 16:04:48;;;;;;;6.05;2.28;;;;;;;;;;9501724;30;20056;-76
2022/06/13 16:09:44;;;;;;;10.55;1.95;;;;;;;;;;9504305;30;20475;-76
2022/06/13 16:14:42;;;;;;;5.18;1.20;;;;;;;;;;9503028;30;20149;-75
2022/06/13 16:19:40;;;;;;;7.15;2.50;;;;;;;;;;9508627;30;20433;-76
2022/06/13 16:24:34;;;;;;;9.98;2.78;;;;;;;;;;9508032;30;20059;-76
2022/06/13 16:29:29;;;;;;;8.50;2.90;;;;;;;;;;9494608;30;20064;-76
2022/06/13 16:34:24;;;;;;;1.52;0.93;;;;;;;;;;9512301;30;20056;-75
2022/06/13 16:39:17;;;;;;;6.60;1.08;;;;;;;;;;9507271;30;20060;-75
2022/06/13 16:44:12;;;;;;;5.95;1.83;;;;;;;;;;9511857;30;20064;-82
2022/06/13 16:49:14;;;;;;;4.55;2.80;;;;;;;;;;9500590;30;20163;-75
2022/06/13 16:54:17;;;;;;;3.35;2.65;;;;;;;;;;9529689;30;20060;-76
2022/06/13 16:59:27;;;;;;;3.75;1.60;;;;;;;;;;9505467;30;20495;-74
2022/06/13 17:04:32;;;;;;;4.20;2.20;;;;;;;;;;9518294;30;20048;-75
2022/06/13 17:09:25;;;;;;;5.68;2.08;;;;;;;;;;9510610;30;20460;-74
2022/06/13 17:14:39;;;;;;;3.60;1.65;;;;;;;;;;9495129;30;20056;-74
2022/06/13 17:19:35;;;;;;;6.50;1.20;;;;;;;;;;9497153;30;20059;-75
2022/06/13 17:24:29;;;;;;;;;;;;;;;;;;9511225;30;20052;-74
2022/06/13 17:34:36;;;;;;;9.10;2.50;;;;;;;;;;9509451;30;20119;-73
2022/06/13 17:39:34;;;;;;;3.53;1.55;;;;;;;;;;9509327;30;20058;-73
2022/06/13 17:44:29;;;;;;;1.85;1.48;;;;;;;;;;9517040;30;20064;-76
2022/06/13 17:49:23;;;;;;;4.05;2.60;;;;;;;;;;9510846;30;20052;-73
2022/06/13 17:54:18;;;;;;;3.95;2.05;;;;;;;;;;9509979;30;20040;-76
2022/06/13 17:59:12;;;;;;;5.57;2.42;;;;;;;;;;9516961;30;20121;-83
2022/06/13 18:04:07;;;;;;;4.45;1.83;;;;;;;;;;9498922;30;20543;-74
2022/06/13 18:09:02;;;;;;;6.93;1.70;;;;;;;;;;9506752;30;20463;-71
2022/06/13 18:13:56;;;;;;;6.45;3.42;;;;;;;;;;9493081;30;20462;-73
2022/06/13 18:18:49;;;;;;;10.85;3.83;;;;;;;;;;9508097;30;20048;-73
2022/06/13 18:23:43;;;;;;;3.67;1.90;;;;;;;;;;9492835;30;20048;-73
2022/06/13 18:28:37;;;;;;;4.07;2.28;;;;;;;;;;9502903;30;20143;-74
2022/06/13 18:33:31;;;;;;;6.13;1.50;;;;;;;;;;9507869;30;20482;-73
2022/06/13 18:38:26;;;;;;;2.55;1.58;;;;;;;;;;9508697;30;20088;-73
2022/06/13 18:43:20;;;;;;;7.32;2.55;;;;;;;;;;9505191;30;20079;-73
2022/06/13 18:48:15;;;;;;;8.27;2.05;;;;;;;;;;9507435;30;20077;-72
2022/06/13 18:53:10;;;;;;;4.97;1.92;;;;;;;;;;9504348;30;20063;-77
2022/06/13 18:58:04;;;;;;;4.85;2.03;;;;;;;;;;9508840;30;20106;-71
2022/06/13 19:03:10;;;;;;;7.40;2.08;;;;;;;;;;9514140;30;20497;-72
2022/06/13 19:08:07;;;;;;;6.43;2.67;;;;;;;;;;9517103;30;20086;-74
2022/06/13 19:13:04;;;;;;;3.05;2.28;;;;;;;;;;9492570;30;20055;-73
2022/06/13 19:17:58;;;;;;;4.50;2.08;;;;;;;;;;9508068;30;20048;-76
2022/06/13 19:22:54;;;;;;;9.27;2.20;;;;;;;;;;9513626;30;20056;-73
2022/06/13 19:27:48;;;;;;;8.15;2.70;;;;;;;;;;9506358;30;20083;-73
2022/06/13 19:32:44;;;;;;;5.03;2.28;;;;;;;;;;9506229;30;20066;-77
2022/06/13 19:37:39;;;;;;;6.00;2.55;;;;;;;;;;9502965;30;20072;-73
2022/06/13 19:42:34;;;;;;;4.80;2.40;;;;;;;;;;9504083;30;20063;-75
2022/06/13 19:47:28;;;;;;;16.42;2.92;;;;;;;;;;9506708;30;20401;-73
2022/06/13 19:57:34;;;;;;;7.03;4.43;;;;;;;;;;9499976;30;20052;-77
2022/06/13 20:02:28;;;;;;;11.05;3.75;;;;;;;;;;9502849;30;20055;-81
2022/06/13 20:12:35;;;;;;;8.68;3.33;;;;;;;;;;9502288;30;20131;-69
2022/06/13 20:17:30;;;;;;;14.68;3.80;;;;;;;;;;9500616;30;20150;-69
2022/06/13 20:22:24;;;;;;;18.00;4.63;;;;;;;;;;9504191;30;20068;-73
2022/06/13 20:27:17;;;;;;;26.05;5.60;;;;;;;;;;9502574;30;20044;-70
2022/06/13 20:32:10;;;;;;;7.93;4.53;;;;;;;;;;9502825;30;20076;-74
2022/06/13 20:37:08;;;;;;;6.18;4.05;;;;;;;;;;9486621;30;20481;-73
2022/06/13 20:42:05;;;;;;;33.92;5.05;;;;;;;;;;9485127;30;20516;-72
2022/06/13 20:47:04;;;;;;;13.00;5.40;;;;;;;;;;9497490;30;20060;-72
2022/06/13 20:52:00;;;;;;;18.20;4.95;;;;;;;;;;9500844;30;20199;-72
2022/06/13 20:56:55;;;;;;;7.57;4.60;;;;;;;;;;9501087;30;20389;-73
2022/06/13 21:01:51;;;;;;;7.95;4.97;;;;;;;;;;9504315;30;20416;-74
2022/06/13 21:06:45;;;;;;;8.38;4.30;;;;;;;;;;9503639;30;20056;-72
2022/06/13 21:11:38;;;;;;;12.10;5.50;;;;;;;;;;9506921;30;20127;-73
2022/06/13 21:16:33;;;;;;;5.75;4.68;;;;;;;;;;9511012;30;20059;-74
2022/06/13 21:21:28;;;;;;;9.48;5.35;;;;;;;;;;9512902;30;20060;-78
2022/06/13 21:26:21;;;;;;;8.45;4.43;;;;;;;;;;9495173;30;20048;-75
2022/06/13 21:31:15;;;;;;;10.25;5.18;;;;;;;;;;9508276;30;20052;-75
2022/06/13 21:36:09;;;;;;;7.70;4.50;;;;;;;;;;9510149;30;20060;-82
2022/06/13 21:41:05;;;;;;;4.85;4.40;;;;;;;;;;9503146;30;20118;-71
2022/06/13 21:45:59;;;;;;;16.35;5.78;;;;;;;;;;9506231;30;20139;-72
2022/06/13 21:50:54;;;;;;;7.75;5.10;;;;;;;;;;9506938;30;20061;-72
2022/06/13 21:55:53;;;;;;;8.13;4.80;;;;;;;;;;9506612;30;20152;-73
2022/06/13 22:00:47;;;;;;;7.82;5.90;;;;;;;;;;9506946;30;20056;-73
2022/06/13 22:05:42;;;;;;;9.30;6.00;;;;;;;;;;9504561;30;20078;-72
2022/06/13 22:10:38;;;;;;;10.90;8.07;;;;;;;;;;9503323;30;20056;-73
2022/06/13 22:15:32;;;;;;;11.70;8.80;;;;;;;;;;9509110;30;20107;-62
2022/06/13 22:20:26;;;;;;;14.07;6.70;;;;;;;;;;9509812;30;20060;-62
2022/06/13 22:25:20;;;;;;;8.13;6.22;;;;;;;;;;9507992;30;20516;-64
2022/06/13 22:30:15;;;;;;;11.05;6.50;;;;;;;;;;9521765;30;20462;-63
2022/06/13 22:35:09;;;;;;;7.65;6.55;;;;;;;;;;9518473;30;20535;-63
2022/06/13 22:40:05;;;;;;;11.18;7.10;;;;;;;;;;9512002;30;20068;-63
2022/06/13 22:44:58;;;;;;;8.95;6.75;;;;;;;;;;9502844;30;20052;-63
2022/06/13 22:49:51;;;;;;;7.18;6.47;;;;;;;;;;9506687;30;20087;-63
2022/06/13 22:54:45;;;;;;;9.90;6.20;;;;;;;;;;9519734;30;20093;-63
2022/06/13 22:59:40;;;;;;;11.02;6.10;;;;;;;;;;9515022;30;20143;-63
2022/06/13 23:04:37;;;;;;;6.95;6.03;;;;;;;;;;9506854;30;20058;-62
2022/06/13 23:09:32;;;;;;;6.63;5.95;;;;;;;;;;9507382;30;20060;-62
2022/06/13 23:14:29;;;;;;;7.63;6.10;;;;;;;;;;9506954;30;20056;-63
2022/06/13 23:19:23;;;;;;;7.13;6.40;;;;;;;;;;9508113;30;20491;-63
2022/06/13 23:24:18;;;;;;;7.80;6.72;;;;;;;;;;9491143;30;20125;-63
2022/06/13 23:29:11;;;;;;;11.13;7.75;;;;;;;;;;9505686;30;20425;-62
2022/06/13 23:34:06;;;;;;;9.50;8.57;;;;;;;;;;9506080;30;20083;-62
2022/06/13 23:38:59;;;;;;;17.92;9.98;;;;;;;;;;9500162;30;20072;-61
2022/06/13 23:43:54;;;;;;;18.95;11.20;;;;;;;;;;9506305;30;20398;-61
2022/06/13 23:48:48;;;;;;;11.60;10.18;;;;;;;;;;9506017;30;20122;-61
2022/06/13 23:53:42;;;;;;;11.95;10.43;;;;;;;;;;9522709;30;20063;-61
2022/06/13 23:58:36;;;;;;;10.20;9.30;;;;;;;;;;9525172;30;20105;-61
